Dalmally, United Kingdom
Current Conditions -  °F | °C
As of 9:20 PM on Tuesday 21 Oct 2014 (Local Time) from EGPF Reporting Station
Few Clouds Few Clouds  
Wind Chill: 40°   Ceiling: Unl
Heat Index: 46°   Visibility: 6mi
Dew Point: 37°   Wind: 14mph
Humidity: 71%   Direction: 270°W
Pressure: 29.91"   Gusts: NA
Location:  56.4°N, 4.98°W
Report Text: EGPF 212020Z AUTO 27012KT 9999 FEW039/// //////CB 08/03 Q1013
Loading
Personal Weather Stations






























Interactive Weather Map
Tropical Storm Tracking
New forecast layout! Learn more

10-Day Weather Forecast

Advertisements
Track Severe Weather on mobile